sensor_id;sensor_type;location;lat;lon;timestamp;temperature;humidity
46440;DHT22;32138;50.966;6.968;2023-05-10T00:00:41;15.70;99.90
46440;DHT22;32138;50.966;6.968;2023-05-10T00:01:42;15.70;99.90
46440;DHT22;32138;50.966;6.968;2023-05-10T00:02:43;15.60;99.90
46440;DHT22;32138;50.966;6.968;2023-05-10T00:03:44;15.50;99.90
46440;DHT22;32138;50.966;6.968;2023-05-10T00:04:45;15.60;99.90
46440;DHT22;32138;50.966;6.968;2023-05-10T00:05:45;15.50;99.90
46440;DHT22;32138;50.966;6.968;2023-05-10T00:06:46;15.50;99.90
46440;DHT22;32138;50.966;6.968;2023-05-10T00:07:47;15.50;99.90
46440;DHT22;32138;50.966;6.968;2023-05-10T00:08:48;15.50;99.90
46440;DHT22;32138;50.966;6.968;2023-05-10T00:09:48;15.40;99.90
46440;DHT22;32138;50.966;6.968;2023-05-10T00:10:49;15.40;99.90
46440;DHT22;32138;50.966;6.968;2023-05-10T00:11:50;15.30;99.90
46440;DHT22;32138;50.966;6.968;2023-05-10T00:12:51;15.30;99.90
46440;DHT22;32138;50.966;6.968;2023-05-10T00:13:51;15.40;99.90
46440;DHT22;32138;50.966;6.968;2023-05-10T00:14:52;15.50;99.90
46440;DHT22;32138;50.966;6.968;2023-05-10T00:15:53;15.60;99.90
46440;DHT22;32138;50.966;6.968;2023-05-10T00:16:54;15.60;99.90
46440;DHT22;32138;50.966;6.968;2023-05-10T00:17:54;15.60;99.90
46440;DHT22;32138;50.966;6.968;2023-05-10T00:18:55;15.70;99.90
46440;DHT22;32138;50.966;6.968;2023-05-10T00:19:56;15.70;99.90
46440;DHT22;32138;50.966;6.968;2023-05-10T00:20:57;15.60;99.90
46440;DHT22;32138;50.966;6.968;2023-05-10T00:21:57;15.60;99.90
46440;DHT22;32138;50.966;6.968;2023-05-10T00:22:58;15.50;99.90
46440;DHT22;32138;50.966;6.968;2023-05-10T00:23:59;15.50;99.90
46440;DHT22;32138;50.966;6.968;2023-05-10T00:25:00;15.50;99.90
46440;DHT22;32138;50.966;6.968;2023-05-10T00:26:01;15.50;99.90
46440;DHT22;32138;50.966;6.968;2023-05-10T00:27:02;15.50;99.90
46440;DHT22;32138;50.966;6.968;2023-05-10T00:28:04;15.50;99.90
46440;DHT22;32138;50.966;6.968;2023-05-10T00:29:05;15.50;99.90
46440;DHT22;32138;50.966;6.968;2023-05-10T00:30:06;15.60;99.90
46440;DHT22;32138;50.966;6.968;2023-05-10T00:31:07;15.60;99.90
46440;DHT22;32138;50.966;6.968;2023-05-10T00:32:08;15.60;99.90
46440;DHT22;32138;50.966;6.968;2023-05-10T00:33:09;15.60;99.90
46440;DHT22;32138;50.966;6.968;2023-05-10T00:34:09;15.50;99.90
46440;DHT22;32138;50.966;6.968;2023-05-10T00:35:11;15.60;99.90
46440;DHT22;32138;50.966;6.968;2023-05-10T00:36:11;15.50;99.90
46440;DHT22;32138;50.966;6.968;2023-05-10T00:37:12;15.40;99.90
46440;DHT22;32138;50.966;6.968;2023-05-10T00:38:13;15.40;99.90
46440;DHT22;32138;50.966;6.968;2023-05-10T00:39:14;15.30;99.90
46440;DHT22;32138;50.966;6.968;2023-05-10T00:40:15;15.30;99.90
46440;DHT22;32138;50.966;6.968;2023-05-10T00:41:16;15.40;99.90
46440;DHT22;32138;50.966;6.968;2023-05-10T00:42:17;15.40;99.90
46440;DHT22;32138;50.966;6.968;2023-05-10T00:43:17;15.40;99.90
46440;DHT22;32138;50.966;6.968;2023-05-10T00:44:18;15.30;99.90
46440;DHT22;32138;50.966;6.968;2023-05-10T00:45:19;15.30;99.90
46440;DHT22;32138;50.966;6.968;2023-05-10T00:46:20;15.30;99.90
46440;DHT22;32138;50.966;6.968;2023-05-10T00:47:22;15.30;99.90
46440;DHT22;32138;50.966;6.968;2023-05-10T00:48:23;15.30;99.90
46440;DHT22;32138;50.966;6.968;2023-05-10T00:49:24;15.40;99.90
46440;DHT22;32138;50.966;6.968;2023-05-10T00:50:25;15.40;99.90
46440;DHT22;32138;50.966;6.968;2023-05-10T00:51:26;15.20;99.90
46440;DHT22;32138;50.966;6.968;2023-05-10T00:52:28;15.30;99.90
46440;DHT22;32138;50.966;6.968;2023-05-10T00:53:31;15.40;99.90
46440;DHT22;32138;50.966;6.968;2023-05-10T00:54:33;15.40;99.90
46440;DHT22;32138;50.966;6.968;2023-05-10T00:55:34;15.50;99.90
46440;DHT22;32138;50.966;6.968;2023-05-10T00:56:35;15.30;99.90
46440;DHT22;32138;50.966;6.968;2023-05-10T00:57:37;15.20;99.90
46440;DHT22;32138;50.966;6.968;2023-05-10T00:58:38;15.20;99.90
46440;DHT22;32138;50.966;6.968;2023-05-10T00:59:39;15.10;99.90
46440;DHT22;32138;50.966;6.968;2023-05-10T01:00:42;15.20;99.90
46440;DHT22;32138;50.966;6.968;2023-05-10T01:01:46;15.40;99.90
46440;DHT22;32138;50.966;6.968;2023-05-10T01:02:47;15.30;99.90
46440;DHT22;32138;50.966;6.968;2023-05-10T01:03:48;15.30;99.90
46440;DHT22;32138;50.966;6.968;2023-05-10T01:04:49;15.40;99.90
46440;DHT22;32138;50.966;6.968;2023-05-10T01:05:50;15.50;99.90
46440;DHT22;32138;50.966;6.968;2023-05-10T01:06:51;15.50;99.90
46440;DHT22;32138;50.966;6.968;2023-05-10T01:07:53;15.40;99.90
46440;DHT22;32138;50.966;6.968;2023-05-10T01:08:53;15.50;99.90
46440;DHT22;32138;50.966;6.968;2023-05-10T01:09:55;15.50;99.90
46440;DHT22;32138;50.966;6.968;2023-05-10T01:10:57;15.50;99.90
46440;DHT22;32138;50.966;6.968;2023-05-10T01:11:58;15.50;99.90
46440;DHT22;32138;50.966;6.968;2023-05-10T01:12:59;15.50;99.90
46440;DHT22;32138;50.966;6.968;2023-05-10T01:14:01;15.60;99.90
46440;DHT22;32138;50.966;6.968;2023-05-10T01:15:04;15.60;99.90
46440;DHT22;32138;50.966;6.968;2023-05-10T01:16:06;15.60;99.90
46440;DHT22;32138;50.966;6.968;2023-05-10T01:17:07;15.60;99.90
46440;DHT22;32138;50.966;6.968;2023-05-10T01:18:09;15.50;99.90
46440;DHT22;32138;50.966;6.968;2023-05-10T01:19:22;15.50;99.90
46440;DHT22;32138;50.966;6.968;2023-05-10T01:20:24;15.40;99.90
46440;DHT22;32138;50.966;6.968;2023-05-10T01:23:31;15.40;99.90
46440;DHT22;32138;50.966;6.968;2023-05-10T01:29:08;15.30;99.90
46440;DHT22;32138;50.966;6.968;2023-05-10T01:35:00;15.20;99.90
46440;DHT22;32138;50.966;6.968;2023-05-10T01:36:27;15.30;99.90
46440;DHT22;32138;50.966;6.968;2023-05-10T01:37:45;15.40;99.90
46440;DHT22;32138;50.966;6.968;2023-05-10T01:38:51;15.40;99.90
46440;DHT22;32138;50.966;6.968;2023-05-10T01:40:42;15.40;99.90
46440;DHT22;32138;50.966;6.968;2023-05-10T01:42:11;15.20;99.90
46440;DHT22;32138;50.966;6.968;2023-05-10T01:43:28;15.20;99.90
46440;DHT22;32138;50.966;6.968;2023-05-10T01:45:50;15.30;99.90
46440;DHT22;32138;50.966;6.968;2023-05-10T01:47:52;15.40;99.90
46440;DHT22;32138;50.966;6.968;2023-05-10T01:48:33;15.20;99.90
46440;DHT22;32138;50.966;6.968;2023-05-10T01:49:39;15.40;99.90
46440;DHT22;32138;50.966;6.968;2023-05-10T01:50:44;15.40;99.90
46440;DHT22;32138;50.966;6.968;2023-05-10T01:51:50;15.40;99.90
46440;DHT22;32138;50.966;6.968;2023-05-10T01:52:58;15.40;99.90
46440;DHT22;32138;50.966;6.968;2023-05-10T01:54:02;15.40;99.90
46440;DHT22;32138;50.966;6.968;2023-05-10T01:55:06;15.50;99.90
46440;DHT22;32138;50.966;6.968;2023-05-10T01:56:09;15.40;99.90
46440;DHT22;32138;50.966;6.968;2023-05-10T01:57:13;15.40;99.90
46440;DHT22;32138;50.966;6.968;2023-05-10T01:58:32;15.40;99.90
46440;DHT22;32138;50.966;6.968;2023-05-10T01:59:36;15.40;99.90
46440;DHT22;32138;50.966;6.968;2023-05-10T02:00:45;15.40;99.90
46440;DHT22;32138;50.966;6.968;2023-05-10T02:01:47;15.40;99.90
46440;DHT22;32138;50.966;6.968;2023-05-10T02:02:49;15.30;99.90
46440;DHT22;32138;50.966;6.968;2023-05-10T02:03:51;15.30;99.90
46440;DHT22;32138;50.966;6.968;2023-05-10T02:04:54;15.30;99.90
46440;DHT22;32138;50.966;6.968;2023-05-10T02:05:56;15.40;99.90
46440;DHT22;32138;50.966;6.968;2023-05-10T02:06:57;15.50;99.90
46440;DHT22;32138;50.966;6.968;2023-05-10T02:07:59;15.40;99.90
46440;DHT22;32138;50.966;6.968;2023-05-10T02:09:03;15.40;99.90
46440;DHT22;32138;50.966;6.968;2023-05-10T02:10:07;15.40;99.90
46440;DHT22;32138;50.966;6.968;2023-05-10T02:11:13;15.50;99.90
46440;DHT22;32138;50.966;6.968;2023-05-10T02:12:15;15.50;99.90
46440;DHT22;32138;50.966;6.968;2023-05-10T02:13:18;15.50;99.90
46440;DHT22;32138;50.966;6.968;2023-05-10T02:14:20;15.50;99.90
46440;DHT22;32138;50.966;6.968;2023-05-10T02:15:23;15.50;99.90
46440;DHT22;32138;50.966;6.968;2023-05-10T02:16:26;15.30;99.90
46440;DHT22;32138;50.966;6.968;2023-05-10T02:17:28;15.30;99.90
46440;DHT22;32138;50.966;6.968;2023-05-10T02:18:31;15.30;99.90
46440;DHT22;32138;50.966;6.968;2023-05-10T02:19:36;15.40;99.90
46440;DHT22;32138;50.966;6.968;2023-05-10T02:20:39;15.50;99.90
46440;DHT22;32138;50.966;6.968;2023-05-10T02:21:40;15.50;99.90
46440;DHT22;32138;50.966;6.968;2023-05-10T02:22:43;15.50;99.90
46440;DHT22;32138;50.966;6.968;2023-05-10T02:23:46;15.40;99.90
46440;DHT22;32138;50.966;6.968;2023-05-10T02:24:47;15.40;99.90
46440;DHT22;32138;50.966;6.968;2023-05-10T02:25:50;15.40;99.90
46440;DHT22;32138;50.966;6.968;2023-05-10T02:26:54;15.40;99.90
46440;DHT22;32138;50.966;6.968;2023-05-10T02:27:57;15.40;99.90
46440;DHT22;32138;50.966;6.968;2023-05-10T02:28:58;15.40;99.90
46440;DHT22;32138;50.966;6.968;2023-05-10T02:30:01;15.30;99.90
46440;DHT22;32138;50.966;6.968;2023-05-10T02:31:02;15.30;99.90
46440;DHT22;32138;50.966;6.968;2023-05-10T02:32:03;15.30;99.90
46440;DHT22;32138;50.966;6.968;2023-05-10T02:33:05;15.40;99.90
46440;DHT22;32138;50.966;6.968;2023-05-10T02:34:07;15.40;99.90
46440;DHT22;32138;50.966;6.968;2023-05-10T02:35:09;15.40;99.90
46440;DHT22;32138;50.966;6.968;2023-05-10T02:36:12;15.50;99.90
46440;DHT22;32138;50.966;6.968;2023-05-10T02:37:14;15.40;99.90
46440;DHT22;32138;50.966;6.968;2023-05-10T02:38:16;15.40;99.90
46440;DHT22;32138;50.966;6.968;2023-05-10T02:39:19;15.40;99.90
46440;DHT22;32138;50.966;6.968;2023-05-10T02:40:23;15.30;99.90
46440;DHT22;32138;50.966;6.968;2023-05-10T02:41:25;15.30;99.90
46440;DHT22;32138;50.966;6.968;2023-05-10T02:42:27;15.40;99.90
46440;DHT22;32138;50.966;6.968;2023-05-10T02:43:32;15.40;99.90
46440;DHT22;32138;50.966;6.968;2023-05-10T02:44:34;15.50;99.90
46440;DHT22;32138;50.966;6.968;2023-05-10T02:45:37;15.50;99.90
46440;DHT22;32138;50.966;6.968;2023-05-10T02:46:39;15.50;99.90
46440;DHT22;32138;50.966;6.968;2023-05-10T02:47:40;15.40;99.90
46440;DHT22;32138;50.966;6.968;2023-05-10T02:48:40;15.40;99.90
46440;DHT22;32138;50.966;6.968;2023-05-10T02:49:42;15.40;99.90
46440;DHT22;32138;50.966;6.968;2023-05-10T02:50:44;15.40;99.90
46440;DHT22;32138;50.966;6.968;2023-05-10T02:51:50;15.30;99.90
46440;DHT22;32138;50.966;6.968;2023-05-10T02:52:55;15.30;99.90
46440;DHT22;32138;50.966;6.968;2023-05-10T02:54:09;15.40;99.90
46440;DHT22;32138;50.966;6.968;2023-05-10T02:55:15;15.40;99.90
46440;DHT22;32138;50.966;6.968;2023-05-10T02:56:31;15.50;99.90
46440;DHT22;32138;50.966;6.968;2023-05-10T02:57:34;15.40;99.90
46440;DHT22;32138;50.966;6.968;2023-05-10T02:58:37;15.30;99.90
46440;DHT22;32138;50.966;6.968;2023-05-10T02:59:38;15.40;99.90
46440;DHT22;32138;50.966;6.968;2023-05-10T03:00:39;15.40;99.90
46440;DHT22;32138;50.966;6.968;2023-05-10T03:01:40;15.50;99.90
46440;DHT22;32138;50.966;6.968;2023-05-10T03:02:41;15.50;99.90
46440;DHT22;32138;50.966;6.968;2023-05-10T03:03:41;15.40;99.90
46440;DHT22;32138;50.966;6.968;2023-05-10T03:04:42;15.40;99.90
46440;DHT22;32138;50.966;6.968;2023-05-10T03:05:43;15.50;99.90
46440;DHT22;32138;50.966;6.968;2023-05-10T03:06:44;15.50;99.90
46440;DHT22;32138;50.966;6.968;2023-05-10T03:07:45;15.50;99.90
46440;DHT22;32138;50.966;6.968;2023-05-10T03:08:46;15.50;99.90
46440;DHT22;32138;50.966;6.968;2023-05-10T03:09:50;15.50;99.90
46440;DHT22;32138;50.966;6.968;2023-05-10T03:17:20;15.30;99.90
46440;DHT22;32138;50.966;6.968;2023-05-10T03:20:12;15.30;99.90
46440;DHT22;32138;50.966;6.968;2023-05-10T03:21:22;15.30;99.90
46440;DHT22;32138;50.966;6.968;2023-05-10T03:22:34;15.30;99.90
46440;DHT22;32138;50.966;6.968;2023-05-10T03:23:46;15.30;99.90
46440;DHT22;32138;50.966;6.968;2023-05-10T03:25:04;15.20;99.90
46440;DHT22;32138;50.966;6.968;2023-05-10T03:26:07;15.20;99.90
46440;DHT22;32138;50.966;6.968;2023-05-10T03:27:08;15.20;99.90
46440;DHT22;32138;50.966;6.968;2023-05-10T03:28:12;15.30;99.90
46440;DHT22;32138;50.966;6.968;2023-05-10T03:29:15;15.30;99.90
46440;DHT22;32138;50.966;6.968;2023-05-10T03:30:17;15.30;99.90
46440;DHT22;32138;50.966;6.968;2023-05-10T03:31:19;15.30;99.90
46440;DHT22;32138;50.966;6.968;2023-05-10T03:32:19;15.30;99.90
46440;DHT22;32138;50.966;6.968;2023-05-10T03:33:20;15.30;99.90
46440;DHT22;32138;50.966;6.968;2023-05-10T03:34:24;15.40;99.90
46440;DHT22;32138;50.966;6.968;2023-05-10T03:35:25;15.40;99.90
46440;DHT22;32138;50.966;6.968;2023-05-10T03:36:26;15.30;99.90
46440;DHT22;32138;50.966;6.968;2023-05-10T03:37:26;15.40;99.90
46440;DHT22;32138;50.966;6.968;2023-05-10T03:38:27;15.30;99.90
46440;DHT22;32138;50.966;6.968;2023-05-10T03:39:28;15.40;99.90
46440;DHT22;32138;50.966;6.968;2023-05-10T03:40:29;15.30;99.90
46440;DHT22;32138;50.966;6.968;2023-05-10T03:41:31;15.40;99.90
46440;DHT22;32138;50.966;6.968;2023-05-10T03:42:32;15.30;99.90
46440;DHT22;32138;50.966;6.968;2023-05-10T03:43:33;15.30;99.90
46440;DHT22;32138;50.966;6.968;2023-05-10T03:44:33;15.30;99.90
46440;DHT22;32138;50.966;6.968;2023-05-10T03:45:34;15.30;99.90
46440;DHT22;32138;50.966;6.968;2023-05-10T03:46:35;15.30;99.90
46440;DHT22;32138;50.966;6.968;2023-05-10T03:47:36;15.40;99.90
46440;DHT22;32138;50.966;6.968;2023-05-10T03:48:37;15.40;99.90
46440;DHT22;32138;50.966;6.968;2023-05-10T03:49:38;15.30;99.90
46440;DHT22;32138;50.966;6.968;2023-05-10T03:50:38;15.30;99.90
46440;DHT22;32138;50.966;6.968;2023-05-10T03:51:39;15.40;99.90
46440;DHT22;32138;50.966;6.968;2023-05-10T03:52:40;15.40;99.90
46440;DHT22;32138;50.966;6.968;2023-05-10T03:53:41;15.40;99.90
46440;DHT22;32138;50.966;6.968;2023-05-10T03:54:42;15.50;99.90
46440;DHT22;32138;50.966;6.968;2023-05-10T03:55:42;15.50;99.90
46440;DHT22;32138;50.966;6.968;2023-05-10T03:56:43;15.50;99.90
46440;DHT22;32138;50.966;6.968;2023-05-10T03:57:44;15.30;99.90
46440;DHT22;32138;50.966;6.968;2023-05-10T03:58:45;15.30;99.90
46440;DHT22;32138;50.966;6.968;2023-05-10T03:59:45;15.30;99.90
46440;DHT22;32138;50.966;6.968;2023-05-10T04:00:46;15.30;99.90
46440;DHT22;32138;50.966;6.968;2023-05-10T04:01:47;15.10;99.90
46440;DHT22;32138;50.966;6.968;2023-05-10T04:02:47;15.10;99.90
46440;DHT22;32138;50.966;6.968;2023-05-10T04:03:48;15.20;99.90
46440;DHT22;32138;50.966;6.968;2023-05-10T04:04:49;15.30;99.90
46440;DHT22;32138;50.966;6.968;2023-05-10T04:05:58;15.30;99.90
46440;DHT22;32138;50.966;6.968;2023-05-10T04:07:01;15.50;99.90
46440;DHT22;32138;50.966;6.968;2023-05-10T04:08:02;15.40;99.90
46440;DHT22;32138;50.966;6.968;2023-05-10T04:09:03;15.40;99.90
46440;DHT22;32138;50.966;6.968;2023-05-10T04:10:05;15.40;99.90
46440;DHT22;32138;50.966;6.968;2023-05-10T04:12:08;15.40;99.90
46440;DHT22;32138;50.966;6.968;2023-05-10T04:13:09;15.40;99.90
46440;DHT22;32138;50.966;6.968;2023-05-10T04:14:10;15.50;99.90
46440;DHT22;32138;50.966;6.968;2023-05-10T04:15:10;15.50;99.90
46440;DHT22;32138;50.966;6.968;2023-05-10T04:16:11;15.50;99.90
46440;DHT22;32138;50.966;6.968;2023-05-10T04:17:12;15.50;99.90
46440;DHT22;32138;50.966;6.968;2023-05-10T04:18:13;15.50;99.90
46440;DHT22;32138;50.966;6.968;2023-05-10T04:19:13;15.50;99.90
46440;DHT22;32138;50.966;6.968;2023-05-10T04:20:14;15.50;99.90
46440;DHT22;32138;50.966;6.968;2023-05-10T04:21:15;15.60;99.90
46440;DHT22;32138;50.966;6.968;2023-05-10T04:22:16;15.60;99.90
46440;DHT22;32138;50.966;6.968;2023-05-10T04:23:17;15.60;99.90
46440;DHT22;32138;50.966;6.968;2023-05-10T04:24:18;15.70;99.90
46440;DHT22;32138;50.966;6.968;2023-05-10T04:25:19;15.70;99.90
46440;DHT22;32138;50.966;6.968;2023-05-10T04:26:20;15.70;99.90
46440;DHT22;32138;50.966;6.968;2023-05-10T04:27:20;15.70;99.90
46440;DHT22;32138;50.966;6.968;2023-05-10T04:28:21;15.70;99.90
46440;DHT22;32138;50.966;6.968;2023-05-10T04:29:22;15.70;99.90
46440;DHT22;32138;50.966;6.968;2023-05-10T04:30:23;15.70;99.90
46440;DHT22;32138;50.966;6.968;2023-05-10T04:31:24;15.60;99.90
46440;DHT22;32138;50.966;6.968;2023-05-10T04:32:24;15.60;99.90
46440;DHT22;32138;50.966;6.968;2023-05-10T04:33:25;15.60;99.90
46440;DHT22;32138;50.966;6.968;2023-05-10T04:34:26;15.60;99.90
46440;DHT22;32138;50.966;6.968;2023-05-10T04:35:27;15.50;99.90
46440;DHT22;32138;50.966;6.968;2023-05-10T04:36:28;15.30;99.90
46440;DHT22;32138;50.966;6.968;2023-05-10T04:37:29;15.40;99.90
46440;DHT22;32138;50.966;6.968;2023-05-10T04:38:30;15.30;99.90
46440;DHT22;32138;50.966;6.968;2023-05-10T04:39:30;15.20;99.90
46440;DHT22;32138;50.966;6.968;2023-05-10T04:40:31;15.30;99.90
46440;DHT22;32138;50.966;6.968;2023-05-10T04:41:32;15.40;99.90
46440;DHT22;32138;50.966;6.968;2023-05-10T04:42:33;15.40;99.90
46440;DHT22;32138;50.966;6.968;2023-05-10T04:43:34;15.50;99.90
46440;DHT22;32138;50.966;6.968;2023-05-10T04:44:35;15.50;99.90
46440;DHT22;32138;50.966;6.968;2023-05-10T04:45:36;15.50;99.90
46440;DHT22;32138;50.966;6.968;2023-05-10T04:46:37;15.50;99.90
46440;DHT22;32138;50.966;6.968;2023-05-10T04:47:37;15.50;99.90
46440;DHT22;32138;50.966;6.968;2023-05-10T04:48:38;15.50;99.90
46440;DHT22;32138;50.966;6.968;2023-05-10T04:49:39;15.50;99.90
46440;DHT22;32138;50.966;6.968;2023-05-10T04:50:40;15.60;99.90
46440;DHT22;32138;50.966;6.968;2023-05-10T04:51:40;15.60;99.90
46440;DHT22;32138;50.966;6.968;2023-05-10T04:52:41;15.60;99.90
46440;DHT22;32138;50.966;6.968;2023-05-10T04:53:42;15.60;99.90
46440;DHT22;32138;50.966;6.968;2023-05-10T04:54:43;15.40;99.90
46440;DHT22;32138;50.966;6.968;2023-05-10T04:55:44;15.50;99.90
46440;DHT22;32138;50.966;6.968;2023-05-10T04:56:44;15.50;99.90
46440;DHT22;32138;50.966;6.968;2023-05-10T04:57:45;15.50;99.90
46440;DHT22;32138;50.966;6.968;2023-05-10T04:58:46;15.60;99.90
46440;DHT22;32138;50.966;6.968;2023-05-10T04:59:47;15.70;99.90
46440;DHT22;32138;50.966;6.968;2023-05-10T05:00:47;15.70;99.90
46440;DHT22;32138;50.966;6.968;2023-05-10T05:01:48;15.70;99.90
46440;DHT22;32138;50.966;6.968;2023-05-10T05:02:49;15.70;99.90
46440;DHT22;32138;50.966;6.968;2023-05-10T05:03:50;15.70;99.90
46440;DHT22;32138;50.966;6.968;2023-05-10T05:04:53;15.60;99.90
46440;DHT22;32138;50.966;6.968;2023-05-10T05:05:53;15.70;99.90
46440;DHT22;32138;50.966;6.968;2023-05-10T05:06:54;15.70;99.90
46440;DHT22;32138;50.966;6.968;2023-05-10T05:07:55;15.70;99.90
46440;DHT22;32138;50.966;6.968;2023-05-10T05:08:56;15.70;99.90
46440;DHT22;32138;50.966;6.968;2023-05-10T05:09:57;15.70;99.90
46440;DHT22;32138;50.966;6.968;2023-05-10T05:10:58;15.70;99.90
46440;DHT22;32138;50.966;6.968;2023-05-10T05:11:59;15.70;99.90
46440;DHT22;32138;50.966;6.968;2023-05-10T05:13:00;15.70;99.90
46440;DHT22;32138;50.966;6.968;2023-05-10T05:14:01;15.70;99.90
46440;DHT22;32138;50.966;6.968;2023-05-10T05:15:02;15.70;99.90
46440;DHT22;32138;50.966;6.968;2023-05-10T05:16:04;15.70;99.90
46440;DHT22;32138;50.966;6.968;2023-05-10T05:17:05;15.60;99.90
46440;DHT22;32138;50.966;6.968;2023-05-10T05:18:06;15.50;99.90
46440;DHT22;32138;50.966;6.968;2023-05-10T05:19:07;15.50;99.90
46440;DHT22;32138;50.966;6.968;2023-05-10T05:20:08;15.50;99.90
46440;DHT22;32138;50.966;6.968;2023-05-10T05:21:19;15.40;99.90
46440;DHT22;32138;50.966;6.968;2023-05-10T05:22:20;15.20;99.90
46440;DHT22;32138;50.966;6.968;2023-05-10T05:23:27;15.10;99.90
46440;DHT22;32138;50.966;6.968;2023-05-10T05:24:28;15.10;99.90
46440;DHT22;32138;50.966;6.968;2023-05-10T05:25:29;15.20;99.90
46440;DHT22;32138;50.966;6.968;2023-05-10T05:26:29;15.30;99.90
46440;DHT22;32138;50.966;6.968;2023-05-10T05:27:31;15.10;99.90
46440;DHT22;32138;50.966;6.968;2023-05-10T05:28:32;15.20;99.90
46440;DHT22;32138;50.966;6.968;2023-05-10T05:29:35;15.20;99.90
46440;DHT22;32138;50.966;6.968;2023-05-10T05:30:35;15.10;99.90
46440;DHT22;32138;50.966;6.968;2023-05-10T05:31:36;15.00;99.90
46440;DHT22;32138;50.966;6.968;2023-05-10T05:32:37;15.10;99.90
46440;DHT22;32138;50.966;6.968;2023-05-10T05:33:37;15.10;99.90
46440;DHT22;32138;50.966;6.968;2023-05-10T05:34:38;15.20;99.90
46440;DHT22;32138;50.966;6.968;2023-05-10T05:35:39;15.10;99.90
46440;DHT22;32138;50.966;6.968;2023-05-10T05:36:40;15.10;99.90
46440;DHT22;32138;50.966;6.968;2023-05-10T05:37:41;15.10;99.90
46440;DHT22;32138;50.966;6.968;2023-05-10T05:38:42;15.30;99.90
46440;DHT22;32138;50.966;6.968;2023-05-10T05:39:43;15.30;99.90
46440;DHT22;32138;50.966;6.968;2023-05-10T05:40:45;15.30;99.90
46440;DHT22;32138;50.966;6.968;2023-05-10T05:41:45;15.30;99.90
46440;DHT22;32138;50.966;6.968;2023-05-10T05:42:46;15.30;99.90
46440;DHT22;32138;50.966;6.968;2023-05-10T05:43:47;15.40;99.90
46440;DHT22;32138;50.966;6.968;2023-05-10T05:44:48;15.50;99.90
46440;DHT22;32138;50.966;6.968;2023-05-10T05:45:49;15.50;99.90
46440;DHT22;32138;50.966;6.968;2023-05-10T05:46:50;15.50;99.90
46440;DHT22;32138;50.966;6.968;2023-05-10T05:47:50;15.40;99.90
46440;DHT22;32138;50.966;6.968;2023-05-10T05:48:51;15.50;99.90
46440;DHT22;32138;50.966;6.968;2023-05-10T05:49:52;15.40;99.90
46440;DHT22;32138;50.966;6.968;2023-05-10T05:50:56;15.40;99.90
46440;DHT22;32138;50.966;6.968;2023-05-10T05:52:00;15.30;99.90
46440;DHT22;32138;50.966;6.968;2023-05-10T05:53:02;15.30;99.90
46440;DHT22;32138;50.966;6.968;2023-05-10T05:54:03;15.30;99.90
46440;DHT22;32138;50.966;6.968;2023-05-10T05:55:04;15.20;99.90
46440;DHT22;32138;50.966;6.968;2023-05-10T05:56:05;15.40;99.90
46440;DHT22;32138;50.966;6.968;2023-05-10T05:57:06;15.40;99.90
46440;DHT22;32138;50.966;6.968;2023-05-10T05:58:07;15.40;99.90
46440;DHT22;32138;50.966;6.968;2023-05-10T05:59:08;15.50;99.90
46440;DHT22;32138;50.966;6.968;2023-05-10T06:00:09;15.50;99.90
46440;DHT22;32138;50.966;6.968;2023-05-10T06:01:10;15.60;99.90
46440;DHT22;32138;50.966;6.968;2023-05-10T06:02:11;15.60;99.90
46440;DHT22;32138;50.966;6.968;2023-05-10T06:03:12;15.70;99.90
46440;DHT22;32138;50.966;6.968;2023-05-10T06:04:12;15.60;99.90
46440;DHT22;32138;50.966;6.968;2023-05-10T06:05:13;15.60;99.90
46440;DHT22;32138;50.966;6.968;2023-05-10T06:06:14;15.70;99.90
46440;DHT22;32138;50.966;6.968;2023-05-10T06:07:15;15.80;99.90
46440;DHT22;32138;50.966;6.968;2023-05-10T06:08:15;15.70;99.90
46440;DHT22;32138;50.966;6.968;2023-05-10T06:09:16;15.60;99.90
46440;DHT22;32138;50.966;6.968;2023-05-10T06:10:17;15.60;99.90
46440;DHT22;32138;50.966;6.968;2023-05-10T06:11:18;15.50;99.90
46440;DHT22;32138;50.966;6.968;2023-05-10T06:12:18;15.40;99.90
46440;DHT22;32138;50.966;6.968;2023-05-10T06:13:19;15.30;99.90
46440;DHT22;32138;50.966;6.968;2023-05-10T06:14:20;15.30;99.90
46440;DHT22;32138;50.966;6.968;2023-05-10T06:15:21;15.40;99.90
46440;DHT22;32138;50.966;6.968;2023-05-10T06:16:22;15.40;99.90
46440;DHT22;32138;50.966;6.968;2023-05-10T06:17:23;15.50;99.90
46440;DHT22;32138;50.966;6.968;2023-05-10T06:18:24;15.50;99.90
46440;DHT22;32138;50.966;6.968;2023-05-10T06:19:25;15.50;99.90
46440;DHT22;32138;50.966;6.968;2023-05-10T06:20:26;15.60;99.90
46440;DHT22;32138;50.966;6.968;2023-05-10T06:21:27;15.50;99.90
46440;DHT22;32138;50.966;6.968;2023-05-10T06:22:28;15.40;99.90
46440;DHT22;32138;50.966;6.968;2023-05-10T06:23:28;15.30;99.90
46440;DHT22;32138;50.966;6.968;2023-05-10T06:24:29;15.20;99.90
46440;DHT22;32138;50.966;6.968;2023-05-10T06:25:30;15.30;99.90
46440;DHT22;32138;50.966;6.968;2023-05-10T06:26:31;15.30;99.90
46440;DHT22;32138;50.966;6.968;2023-05-10T06:27:32;15.30;99.90
46440;DHT22;32138;50.966;6.968;2023-05-10T06:28:32;15.40;99.90
46440;DHT22;32138;50.966;6.968;2023-05-10T06:29:33;15.40;99.90
46440;DHT22;32138;50.966;6.968;2023-05-10T06:30:36;15.50;99.90
46440;DHT22;32138;50.966;6.968;2023-05-10T06:31:37;15.40;99.90
46440;DHT22;32138;50.966;6.968;2023-05-10T06:32:38;15.40;99.90
46440;DHT22;32138;50.966;6.968;2023-05-10T06:33:38;15.40;99.90
46440;DHT22;32138;50.966;6.968;2023-05-10T06:34:39;15.40;99.90
46440;DHT22;32138;50.966;6.968;2023-05-10T06:35:40;15.40;99.90
46440;DHT22;32138;50.966;6.968;2023-05-10T06:36:41;15.40;99.90
46440;DHT22;32138;50.966;6.968;2023-05-10T06:37:42;15.40;99.90
46440;DHT22;32138;50.966;6.968;2023-05-10T06:38:42;15.40;99.90
46440;DHT22;32138;50.966;6.968;2023-05-10T06:39:43;15.40;99.90
46440;DHT22;32138;50.966;6.968;2023-05-10T06:40:44;15.40;99.90
46440;DHT22;32138;50.966;6.968;2023-05-10T06:41:45;15.40;99.90
46440;DHT22;32138;50.966;6.968;2023-05-10T06:42:46;15.30;99.90
46440;DHT22;32138;50.966;6.968;2023-05-10T06:43:48;15.30;99.90
46440;DHT22;32138;50.966;6.968;2023-05-10T06:44:48;15.30;99.90
46440;DHT22;32138;50.966;6.968;2023-05-10T06:45:49;15.30;99.90
46440;DHT22;32138;50.966;6.968;2023-05-10T06:46:50;15.30;99.90
46440;DHT22;32138;50.966;6.968;2023-05-10T06:47:52;15.30;99.90
46440;DHT22;32138;50.966;6.968;2023-05-10T06:48:53;15.30;99.90
46440;DHT22;32138;50.966;6.968;2023-05-10T06:49:54;15.30;99.90
46440;DHT22;32138;50.966;6.968;2023-05-10T06:50:56;15.30;99.90
46440;DHT22;32138;50.966;6.968;2023-05-10T06:51:56;15.20;99.90
46440;DHT22;32138;50.966;6.968;2023-05-10T06:52:57;15.10;99.90
46440;DHT22;32138;50.966;6.968;2023-05-10T06:53:58;15.10;99.90
46440;DHT22;32138;50.966;6.968;2023-05-10T06:54:59;14.90;99.90